Latest Weather Observations for Amberley

IDQ60801

Issued at 7:05 am EST Saturday 19 April 2014 (issued every 30 minutes, with the page automatically refreshed every 10 minutes)

About weather observations | Map of weather stations | Latest weather observations for QLD | Other Formats
Station Details ID: 040004 Name: AMBERLEY AMO Lat: -27.63 Lon: 152.71 Height: 24.2 m
Data from the previous 72 hours. | See also: Recent months at Amberley
Date/Time
EST
Temp
°C
App
Temp
°C
Dew
Point
Rel
Hum
%
Delta-T
°C
Wind Press
QNH
hPa
Press
MSL
hPa
Rain
since 9 am
mm
Dir
 
Spd
km/h
Gust
km/h
Spd
kts
Gust
kts
19/07:00am 12.2 12.6 11.4 95 0.4 WSW 0 0 0 0 1017.0 - 0.0
19/06:30am 9.8 9.7 9.6 99 0.1 NNW 0 0 0 0 1016.8 - 0.0
19/06:00am 10.0 9.9 9.4 96 0.3 N 0 0 0 0 1016.5 1016.4 0.0
19/05:30am 10.5 9.8 9.9 96 0.3 N 4 7 2 4 1016.3 - 0.0
19/05:07am 10.4 10.4 9.8 96 0.3 CALM 0 0 0 0 1016.1 - 0.0
19/05:00am 10.4 10.4 9.8 96 0.3 CALM 0 0 0 0 1016.1 - 0.0
19/04:40am 11.2 11.5 10.8 97 0.2 CALM 0 0 0 0 1016.0 - 0.0
19/04:39am 11.2 11.4 10.6 96 0.3 CALM 0 0 0 0 1016.0 - 0.0
19/04:30am 10.4 10.4 9.8 96 0.3 CALM 0 0 0 0 1015.9 - 0.0
19/04:21am 11.3 11.5 10.5 95 0.4 CALM 0 0 0 0 1015.8 - 0.0
19/04:00am 11.1 10.5 10.3 95 0.4 SW 4 9 2 5 1015.8 - 0.0
19/03:30am 11.1 11.3 10.5 96 0.3 CALM 0 4 0 2 1015.6 - 0.0
19/03:00am 11.4 9.9 10.6 95 0.4 NW 9 11 5 6 1015.8 1015.7 0.0
19/02:30am 11.6 11.2 11.0 96 0.3 NNW 4 7 2 4 1015.8 - 0.0
19/02:00am 11.8 12.1 10.8 94 0.5 CALM 0 0 0 0 1015.7 - 0.0
19/01:30am 12.3 11.0 11.2 93 0.6 NW 9 9 5 5 1015.9 - 0.0
19/01:00am 11.9 11.4 10.9 94 0.5 NNW 4 9 2 5 1015.9 - 0.0
19/12:30am 12.2 12.6 11.1 93 0.6 CALM 0 0 0 0 1016.0 - 0.0
19/12:00am 13.1 13.6 11.6 91 0.8 NW 0 0 0 0 1016.0 1015.9 0.0
 
Date/Time
EST
Temp
°C
App
Temp
°C
Dew
Point
Rel
Hum
%
Delta-T
°C
Wind Press
QNH
hPa
Press
MSL
hPa
Rain
since 9 am
mm
Dir
 
Spd
km/h
Gust
km/h
Spd
kts
Gust
kts
18/11:30pm 13.5 14.1 11.8 89 0.9 CALM 0 0 0 0 1015.8 - 0.0
18/11:00pm 13.6 14.3 12.3 92 0.7 CALM 0 0 0 0 1015.9 - 0.0
18/10:30pm 13.6 14.3 12.3 92 0.7 CALM 0 0 0 0 1015.9 - 0.0
18/10:00pm 14.1 13.5 12.3 89 1.0 NW 7 9 4 5 1016.0 - 0.0
18/09:30pm 14.0 14.8 12.5 91 0.8 CALM 0 0 0 0 1015.9 - 0.0
18/09:00pm 15.7 16.5 12.4 81 1.8 CALM 0 0 0 0 1015.7 1015.6 0.0
18/08:30pm 17.2 16.9 12.7 75 2.5 ESE 6 7 3 4 1015.3 - 0.0
18/08:00pm 17.5 18.2 13.4 77 2.3 ENE 2 7 1 4 1015.2 - 0.0
18/07:30pm 18.5 18.0 12.8 69 3.2 ENE 7 9 4 5 1014.7 - 0.0
18/07:00pm 19.2 19.9 12.2 64 3.9 CALM 0 0 0 0 1014.3 - 0.0
18/06:30pm 20.7 21.4 12.3 58 4.7 CALM 0 0 0 0 1013.8 - 0.0
18/06:00pm 21.0 21.8 12.5 58 4.8 NE 0 0 0 0 1013.6 1013.5 0.0
18/05:30pm 23.7 23.8 10.0 42 7.5 CALM 0 0 0 0 1013.3 - 0.0
18/05:00pm 25.5 24.4 9.9 37 8.6 NNW 6 9 3 5 1013.0 - 0.0
18/04:30pm 27.4 26.0 8.8 31 10.2 NW 6 11 3 6 1012.8 - 0.0
18/04:00pm 27.9 25.6 7.4 27 11.0 WNW 9 15 5 8 1012.7 - 0.0
18/03:30pm 27.9 25.7 7.7 28 10.9 NW 9 13 5 7 1012.8 - 0.0
18/03:00pm 27.8 26.0 7.8 28 10.8 W 7 19 4 10 1012.7 1012.6 0.0
18/02:30pm 27.7 25.5 10.8 34 9.6 WNW 13 24 7 13 1012.9 - 0.0
18/02:00pm 26.9 25.3 11.5 38 8.8 NNW 11 19 6 10 1013.1 - 0.0
18/01:30pm 26.8 25.1 12.3 40 8.4 NNW 13 20 7 11 1013.4 - 0.0
18/01:00pm 26.9 25.9 13.5 43 7.9 NNW 11 22 6 12 1013.8 - 0.0
18/12:30pm 26.1 25.4 14.2 48 7.1 NNW 11 17 6 9 1014.4 - 0.0
18/12:00pm 25.3 23.7 12.7 45 7.3 N 13 19 7 10 1014.9 1014.8 0.0
18/11:30am 25.0 24.8 15.6 56 5.7 WNW 11 17 6 9 1015.6 - 0.0
18/11:00am 24.6 25.7 15.5 57 5.5 WNW 4 11 2 6 1016.3 - 0.0
18/10:30am 23.4 23.9 15.6 61 4.7 W 7 13 4 7 1016.8 - 0.0
18/10:00am 22.6 23.6 14.4 60 4.8 WNW 2 9 1 5 1017.0 - 0.0
18/09:30am 21.3 22.1 14.8 66 3.8 WSW 4 9 2 5 1017.2 - 0.0
18/09:00am 20.8 22.4 15.0 69 3.4 CALM 0 7 0 4 1017.4 1017.3 0.0
18/08:30am 19.3 20.8 15.8 80 2.1 SSW 2 7 1 4 1017.5 - 0.0
18/08:00am 18.0 19.9 15.8 87 1.3 CALM 0 0 0 0 1017.5 - 0.0
18/07:30am 16.3 17.9 14.9 91 0.8 CALM 0 0 0 0 1017.5 - 0.0
18/07:00am 14.4 15.6 13.9 97 0.3 CALM 0 0 0 0 1017.2 - 0.0
18/06:55am 14.1 15.2 13.6 97 0.3 CALM 0 0 0 0 1017.2 - 0.0
18/06:30am 12.9 13.7 12.5 97 0.2 CALM 0 0 0 0 1017.0 - 0.0
18/06:20am 13.2 14.1 12.8 97 0.2 CALM 0 0 0 0 1016.9 - 0.0
18/06:00am 13.0 13.7 12.3 95 0.4 CALM 0 0 0 0 1016.7 1016.6 0.0
18/05:30am 13.8 13.6 13.1 96 0.4 SSW 6 7 3 4 1016.4 - 0.0
18/05:12am 13.0 13.7 12.3 95 0.4 CALM 0 0 0 0 1016.3 - 0.0
18/05:00am 13.1 13.9 12.5 96 0.3 CALM 0 0 0 0 1016.3 - 0.0
18/04:47am 13.3 14.1 12.7 96 0.3 CALM 0 0 0 0 1016.4 - 0.0
18/04:30am 13.8 14.8 13.3 97 0.3 CALM 0 0 0 0 1016.4 - 0.0
18/04:00am 13.7 14.6 13.0 96 0.4 CALM 0 0 0 0 1016.4 - 0.0
18/03:30am 14.7 16.0 14.0 96 0.4 CALM 0 0 0 0 1016.4 - 0.0
18/03:00am 14.5 15.7 13.8 96 0.4 CALM 0 0 0 0 1016.5 1016.4 0.0
18/02:30am 14.0 15.0 13.3 96 0.4 CALM 0 0 0 0 1016.6 - 0.0
18/02:00am 15.2 16.6 14.3 94 0.5 CALM 0 0 0 0 1016.5 - 0.0
18/01:30am 15.4 16.7 14.2 92 0.7 CALM 0 0 0 0 1016.7 - 0.0
18/01:00am 15.5 16.8 14.1 91 0.8 CALM 0 0 0 0 1017.1 - 0.0
18/12:30am 15.2 15.4 14.1 93 0.6 SSW 6 7 3 4 1017.2 - 0.0
18/12:00am 16.7 18.3 14.8 88 1.1 CALM 0 0 0 0 1017.3 1017.2 0.0
 
Date/Time
EST
Temp
°C
App
Temp
°C
Dew
Point
Rel
Hum
%
Delta-T
°C
Wind Press
QNH
hPa
Press
MSL
hPa
Rain
since 9 am
mm
Dir
 
Spd
km/h
Gust
km/h
Spd
kts
Gust
kts
17/11:30pm 16.6 18.0 14.5 87 1.2 CALM 0 6 0 3 1017.5 - 0.0
17/11:00pm 17.2 18.7 14.6 85 1.5 CALM 0 0 0 0 1017.5 - 0.0
17/10:30pm 18.0 18.0 15.3 84 1.6 SSW 9 9 5 5 1017.6 - 0.0
17/10:00pm 19.3 19.6 14.5 74 2.8 S 6 9 3 5 1017.6 - 0.0
17/09:30pm 18.6 18.6 14.3 76 2.5 ESE 7 9 4 5 1017.3 - 0.0
17/09:00pm 20.2 19.9 14.5 69 3.3 E 9 11 5 6 1017.2 1017.1 0.0
17/08:30pm 20.6 19.9 14.2 66 3.7 ENE 11 13 6 7 1016.9 - 0.0
17/08:00pm 20.8 20.0 14.1 65 3.9 E 11 15 6 8 1016.7 - 0.0
17/07:30pm 21.2 19.9 13.8 62 4.3 NE 13 17 7 9 1016.4 - 0.0
17/07:00pm 21.6 20.1 13.2 59 4.8 E 13 17 7 9 1016.0 - 0.0
17/06:30pm 22.0 19.6 12.7 55 5.3 ENE 17 20 9 11 1015.5 - 0.0
17/06:00pm 22.6 20.2 12.6 53 5.7 ENE 17 22 9 12 1015.2 1015.1 0.0
17/05:30pm 23.1 24.2 13.6 55 5.5 CALM 0 0 0 0 1014.8 - 0.0
17/05:00pm 25.1 26.1 13.3 48 6.9 CALM 0 0 0 0 1014.5 - 0.0
17/04:30pm 26.2 26.8 13.2 44 7.6 NE 2 7 1 4 1014.2 - 0.0
17/04:00pm 26.3 26.5 12.9 43 7.8 S 4 7 2 4 1014.1 - 0.0
17/03:30pm 26.5 26.8 12.1 40 8.3 NNE 2 11 1 6 1014.0 - 0.0
17/03:00pm 25.8 25.9 11.6 41 8.1 SW 2 7 1 4 1014.2 1014.1 0.0
17/02:30pm 25.4 26.2 12.4 44 7.5 CALM 0 9 0 5 1014.5 - 0.0
17/02:00pm 25.9 25.5 11.2 39 8.3 SW 4 11 2 6 1014.8 - 0.0
17/01:30pm 26.3 25.8 12.7 43 7.9 ESE 7 13 4 7 1015.0 - 0.0
17/01:00pm 25.6 24.3 11.3 40 8.1 ESE 9 13 5 7 1015.6 - 0.0
17/12:30pm 25.7 24.4 11.4 40 8.1 N 9 17 5 9 1015.8 - 0.0
17/12:00pm 25.2 24.1 12.1 44 7.5 S 9 13 5 7 1016.5 1016.4 0.0
17/11:30am 24.5 22.8 11.1 43 7.5 SW 11 15 6 8 1017.0 - 0.0
17/11:00am 24.5 24.7 12.0 45 7.1 W 2 7 1 4 1017.6 - 0.0
17/10:30am 23.9 22.9 12.3 48 6.6 ESE 9 15 5 8 1018.0 - 0.0
17/10:00am 22.7 22.0 12.1 51 6.0 S 7 13 4 7 1018.3 - 0.0
17/09:30am 21.8 22.6 14.7 64 4.2 SW 4 11 2 6 1018.5 - 0.0
17/09:00am 20.1 21.5 15.5 75 2.7 NW 2 7 1 4 1018.5 1018.4 0.0
17/08:30am 18.3 19.8 14.7 79 2.1 CALM 0 0 0 0 1018.6 - 0.0
17/08:00am 16.7 18.2 14.6 87 1.2 CALM 0 2 0 1 1018.6 - 0.0
17/07:30am 15.3 16.5 13.9 91 0.8 CALM 0 0 0 0 1018.3 - 0.0
17/07:00am 13.6 14.5 12.9 95 0.4 CALM 0 0 0 0 1018.0 - 0.0
17/06:30am 12.0 12.5 11.6 97 0.2 CALM 0 0 0 0 1017.7 - 0.0
17/06:21am 12.0 12.4 11.2 95 0.4 CALM 0 0 0 0 1017.6 - 0.0
17/06:00am 11.8 12.2 11.4 97 0.2 CALM 0 - 0 - - 1017.4 -
17/05:58am 12.0 12.6 11.8 99 0.1 CALM 0 0 0 0 1017.5 - 0.0
17/05:30am 12.4 13.1 12.2 99 0.1 CALM 0 2 0 1 1017.3 - 0.0
17/05:03am 11.8 11.0 11.8 100 0.0 NNW 7 9 4 5 1017.0 - 0.0
17/05:00am 12.2 11.6 11.8 97 0.2 NNW 6 9 3 5 1017.0 - 0.0
17/04:34am 11.9 12.4 11.5 97 0.2 CALM 0 0 0 0 1016.8 - 0.0
17/04:30am 12.1 12.6 11.5 96 0.3 CALM 0 0 0 0 1016.8 - 0.0
17/04:28am 12.1 12.6 11.5 96 0.3 CALM 0 0 0 0 1016.8 - 0.0
17/04:00am 12.9 13.7 12.7 99 0.1 CALM 0 0 0 0 1016.7 - 0.0
17/03:59am 12.9 13.7 12.7 99 0.1 CALM 0 0 0 0 1016.7 - 0.0
17/03:30am 13.0 13.8 12.4 96 0.3 CALM 0 0 0 0 1016.4 - 0.0
17/03:00am 13.5 14.4 12.8 95 0.4 CALM 0 0 0 0 1016.3 1016.2 0.0
17/02:30am 14.1 15.2 13.4 96 0.4 CALM 0 0 0 0 1016.4 - 0.0
17/02:00am 14.0 15.0 13.3 96 0.4 CALM 0 0 0 0 1016.4 - 0.0
17/01:30am 14.1 15.1 13.2 94 0.5 CALM 0 0 0 0 1016.6 - 0.0
17/01:00am 14.1 13.4 13.2 94 0.5 NW 9 9 5 5 1016.9 - 0.0
17/12:30am 14.3 14.0 13.4 94 0.5 SW 7 9 4 5 1016.9 - 0.0
17/12:00am 14.6 13.9 13.3 92 0.7 SSW 9 9 5 5 1016.7 1016.6 0.0
 
Date/Time
EST
Temp
°C
App
Temp
°C
Dew
Point
Rel
Hum
%
Delta-T
°C
Wind Press
QNH
hPa
Press
MSL
hPa
Rain
since 9 am
mm
Dir
 
Spd
km/h
Gust
km/h
Spd
kts
Gust
kts
16/11:30pm 15.4 14.9 13.8 90 0.9 S 9 11 5 6 1016.7 - 0.0
16/11:00pm 15.5 15.0 13.9 90 0.9 S 9 11 5 6 1016.7 - 0.0
16/10:30pm 16.1 17.4 14.2 88 1.1 CALM 0 0 0 0 1016.7 - 0.0
16/10:00pm 15.7 17.0 14.1 90 0.9 CALM 0 0 0 0 1016.7 - 0.0
16/09:30pm 17.7 19.1 14.4 81 1.9 CALM 0 0 0 0 1016.6 - 0.0
16/09:00pm 17.5 18.9 14.5 82 1.7 CALM 0 7 0 4 1016.2 1016.1 0.0
16/08:30pm 18.8 19.0 14.7 77 2.4 NE 7 9 4 5 1015.9 - 0.0
16/08:00pm 20.1 21.5 14.4 69 3.3 CALM 0 6 0 3 1015.8 - 0.0
16/07:30pm 20.2 21.5 14.2 68 3.5 CALM 0 0 0 0 1015.4 - 0.0
16/07:00pm 21.1 20.7 14.2 64 4.0 ENE 9 11 5 6 1014.9 - 0.0
16/06:30pm 20.7 20.8 13.8 64 4.0 E 6 7 3 4 1014.7 - 0.0
16/06:00pm 21.5 21.0 13.7 61 4.5 E 9 11 5 6 1014.1 1014.0 0.0
16/05:30pm 22.7 21.9 12.9 54 5.6 E 9 13 5 7 1013.7 - 0.0
16/05:00pm 24.4 22.4 12.6 47 6.8 ESE 15 19 8 10 1013.6 - 0.0
16/04:30pm 25.5 22.4 11.6 41 7.9 ESE 19 20 10 11 1013.2 - 0.0
16/04:00pm 26.1 24.6 11.8 41 8.2 S 11 15 6 8 1013.1 - 0.0
16/03:30pm 26.3 24.4 11.8 40 8.3 SSE 13 19 7 10 1013.2 - 0.0
16/03:00pm 26.4 24.8 12.8 43 7.9 SSE 13 20 7 11 1013.1 1013.0 0.0
16/02:30pm 26.5 25.2 12.5 41 8.1 ESE 11 15 6 8 1013.2 - 0.0
16/02:00pm 26.3 25.8 12.5 42 8.0 S 7 15 4 8 1013.4 - 0.0
16/01:30pm 26.3 25.7 12.3 41 8.1 SSE 7 15 4 8 1013.7 - 0.0
16/01:00pm 25.5 24.9 11.8 42 7.8 SW 6 9 3 5 1014.2 - 0.0
16/12:30pm 25.3 24.6 12.0 43 7.6 WSW 7 17 4 9 1014.6 - 0.0
16/12:00pm 24.9 23.4 11.9 44 7.4 SW 11 13 6 7 1015.0 1014.9 0.0
16/11:30am 24.3 23.5 11.8 45 7.1 SW 7 13 4 7 1015.7 - 0.0
16/11:00am 23.2 22.5 12.1 49 6.3 S 7 13 4 7 1016.2 - 0.0
16/10:30am 22.8 22.3 12.0 50 6.1 SW 6 13 3 7 1016.6 - 0.0
16/10:00am 22.4 21.3 12.1 52 5.8 SSW 9 15 5 8 1017.0 - 0.0
16/09:30am 21.5 21.1 12.9 58 4.9 WSW 7 13 4 7 1017.2 - 0.0
16/09:00am 20.3 19.5 12.9 62 4.2 NNW 9 13 5 7 1017.2 1017.1 0.0
16/08:30am 19.3 18.5 13.9 71 3.1 NW 11 13 6 7 1017.2 - 0.0
16/08:00am 17.2 17.3 14.4 83 1.6 NW 7 9 4 5 1017.3 - 0.0
16/07:30am 15.9 17.2 14.1 89 1.0 CALM 0 0 0 0 1016.9 - 0.0

Other Formats:

Comma delimited format used in spreadsheet applications
http://www.bom.gov.au/fwo/IDQ60801/IDQ60801.94568.axf

JavaScript Object Notation format (JSON) in row-major order
http://www.bom.gov.au/fwo/IDQ60801/IDQ60801.94568.json